createdAt,value
2019-01-18T00:00:50.790Z,1.20
2019-01-18T00:03:19.805Z,1.20
2019-01-18T00:05:48.711Z,1.20
2019-01-18T00:08:17.661Z,1.20
2019-01-18T00:10:46.938Z,1.20
2019-01-18T00:13:15.775Z,1.20
2019-01-18T00:15:44.605Z,1.20
2019-01-18T00:18:13.519Z,1.10
2019-01-18T00:20:42.335Z,1.10
2019-01-18T00:23:11.127Z,1.10
2019-01-18T00:25:40.193Z,1.10
2019-01-18T00:28:09.213Z,1.00
2019-01-18T00:30:37.981Z,1.00
2019-01-18T00:33:07.201Z,1.00
2019-01-18T00:35:35.999Z,1.00
2019-01-18T00:38:05.063Z,1.00
2019-01-18T00:40:34.079Z,0.90
2019-01-18T00:43:02.842Z,0.90
2019-01-18T00:45:31.700Z,0.90
2019-01-18T00:48:00.685Z,0.90
2019-01-18T00:50:29.621Z,1.00
2019-01-18T00:52:58.547Z,0.90
2019-01-18T00:55:27.524Z,0.90
2019-01-18T00:57:56.455Z,0.90
2019-01-18T01:00:27.053Z,0.90
2019-01-18T01:02:56.209Z,0.80
2019-01-18T01:05:25.976Z,0.80
2019-01-18T01:07:55.025Z,0.80
2019-01-18T01:10:24.187Z,0.80
2019-01-18T01:12:53.170Z,0.80
2019-01-18T01:15:22.187Z,0.80
2019-01-18T01:17:51.388Z,0.80
2019-01-18T01:20:21.558Z,0.80
2019-01-18T01:22:50.919Z,0.70
2019-01-18T01:25:19.968Z,0.70
2019-01-18T01:27:50.124Z,0.70
2019-01-18T01:30:24.191Z,0.70
2019-01-18T01:32:53.678Z,0.70
2019-01-18T01:35:22.668Z,0.70
2019-01-18T01:37:51.940Z,0.60
2019-01-18T01:40:25.519Z,0.60
2019-01-18T01:42:54.865Z,0.50
2019-01-18T01:45:23.995Z,0.50
2019-01-18T01:47:52.963Z,0.50
2019-01-18T01:50:23.983Z,0.60
2019-01-18T01:52:53.086Z,0.60
2019-01-18T01:55:22.104Z,0.60
2019-01-18T01:57:51.237Z,0.60
2019-01-18T02:00:24.648Z,0.60
2019-01-18T02:02:54.001Z,0.50
2019-01-18T02:05:22.928Z,0.60
2019-01-18T02:07:51.784Z,0.60
2019-01-18T02:10:20.843Z,0.50
2019-01-18T02:12:49.835Z,0.50
2019-01-18T02:15:20.754Z,0.50
2019-01-18T02:17:49.859Z,0.50
2019-01-18T02:20:19.923Z,0.50
2019-01-18T02:22:49.367Z,0.50
2019-01-18T02:25:18.566Z,0.40
2019-01-18T02:27:47.722Z,0.40
2019-01-18T02:30:19.428Z,0.40
2019-01-18T02:32:48.321Z,0.40
2019-01-18T02:35:17.483Z,0.40
2019-01-18T02:37:46.552Z,0.40
2019-01-18T02:40:15.568Z,0.30
2019-01-18T02:42:44.577Z,0.30
2019-01-18T02:45:15.445Z,0.30
2019-01-18T02:47:44.350Z,0.30
2019-01-18T02:50:13.751Z,0.30
2019-01-18T02:52:42.962Z,0.20
2019-01-18T02:55:12.297Z,0.20
2019-01-18T02:57:41.227Z,0.20
2019-01-18T03:00:13.599Z,0.20
2019-01-18T03:02:42.394Z,0.20
2019-01-18T03:05:12.156Z,0.20
2019-01-18T03:07:41.271Z,0.20
2019-01-18T03:10:13.836Z,0.20
2019-01-18T03:12:42.833Z,0.20
2019-01-18T03:15:11.897Z,0.20
2019-01-18T03:17:40.810Z,0.10
2019-01-18T03:20:11.523Z,0.10
2019-01-18T03:22:40.582Z,0.10
2019-01-18T03:25:12.352Z,0.10
2019-01-18T03:27:41.175Z,0.10
2019-01-18T03:30:18.615Z,0.10
2019-01-18T03:32:43.577Z,0.00
2019-01-18T03:35:14.257Z,0.00
2019-01-18T03:37:43.343Z,0.00
2019-01-18T03:40:13.762Z,0.00
2019-01-18T03:42:42.740Z,0.00
2019-01-18T03:45:13.403Z,0.00
2019-01-18T03:47:42.338Z,0.00
2019-01-18T03:50:14.385Z,-0.10
2019-01-18T03:52:43.407Z,-0.10
2019-01-18T03:55:12.505Z,-0.10
2019-01-18T03:57:41.549Z,-0.10
2019-01-18T04:00:26.339Z,-0.10
2019-01-18T04:02:55.272Z,-0.10
2019-01-18T04:05:24.089Z,-0.10
2019-01-18T04:07:53.239Z,0.00
2019-01-18T04:10:22.833Z,0.00
2019-01-18T04:12:51.813Z,-0.10
2019-01-18T04:15:21.484Z,-0.10
2019-01-18T04:17:50.532Z,-0.10
2019-01-18T04:20:19.620Z,-0.10
2019-01-18T04:22:48.716Z,-0.10
2019-01-18T04:25:22.657Z,-0.10
2019-01-18T04:27:51.648Z,-0.10
2019-01-18T04:30:21.517Z,-0.10
2019-01-18T04:32:50.837Z,-0.10
2019-01-18T04:35:19.812Z,-0.10
2019-01-18T04:37:49.075Z,-0.10
2019-01-18T04:40:22.956Z,-0.10
2019-01-18T04:42:51.944Z,-0.10
2019-01-18T04:45:21.377Z,-0.10
2019-01-18T04:47:50.436Z,-0.10
2019-01-18T04:50:21.059Z,-0.10
2019-01-18T04:52:50.207Z,-0.10
2019-01-18T04:55:19.675Z,-0.10
2019-01-18T04:57:48.624Z,-0.10
2019-01-18T05:00:19.999Z,-0.10
2019-01-18T05:02:48.931Z,-0.10
2019-01-18T05:05:18.023Z,-0.20
2019-01-18T05:07:46.993Z,-0.20
2019-01-18T05:10:16.908Z,-0.20
2019-01-18T05:12:45.917Z,-0.20
2019-01-18T05:15:26.244Z,-0.20
2019-01-18T05:17:55.032Z,-0.20
2019-01-18T05:20:23.907Z,-0.20
2019-01-18T05:22:52.909Z,-0.30
2019-01-18T05:25:21.771Z,-0.20
2019-01-18T05:27:50.633Z,-0.30
2019-01-18T05:30:27.485Z,-0.30
2019-01-18T05:32:56.594Z,-0.40
2019-01-18T05:35:25.621Z,-0.50
2019-01-18T05:37:54.675Z,-0.50
2019-01-18T05:40:23.609Z,-0.40
2019-01-18T05:42:52.575Z,-0.40
2019-01-18T05:45:22.035Z,-0.40
2019-01-18T05:47:51.483Z,-0.40
2019-01-18T05:50:22.496Z,-0.50
2019-01-18T05:52:52.230Z,-0.50
2019-01-18T05:55:21.256Z,-0.40
2019-01-18T05:57:50.248Z,-0.50
2019-01-18T06:00:54.947Z,-0.50
2019-01-18T06:03:18.516Z,-0.60
2019-01-18T06:05:47.645Z,-0.60
2019-01-18T06:08:16.640Z,-0.60
2019-01-18T06:10:45.501Z,-0.60
2019-01-18T06:13:14.411Z,-0.60
2019-01-18T06:15:43.405Z,-0.60
2019-01-18T06:18:12.333Z,-0.60
2019-01-18T06:20:41.266Z,-0.70
2019-01-18T06:23:10.324Z,-0.70
2019-01-18T06:25:39.257Z,-0.60
2019-01-18T06:28:08.367Z,-0.70
2019-01-18T06:30:37.421Z,-0.70
2019-01-18T06:33:07.240Z,-0.70
2019-01-18T06:35:36.222Z,-0.70
2019-01-18T06:38:05.453Z,-0.70
2019-01-18T06:40:34.990Z,-0.70
2019-01-18T06:43:04.016Z,-0.70
2019-01-18T06:45:33.720Z,-0.80
2019-01-18T06:48:02.677Z,-0.80
2019-01-18T06:50:31.567Z,-0.80
2019-01-18T06:53:00.573Z,-0.80
2019-01-18T06:55:29.964Z,-0.80
2019-01-18T06:57:58.819Z,-0.80
2019-01-18T07:00:30.053Z,-0.90
2019-01-18T07:02:59.129Z,-0.90
2019-01-18T07:05:28.121Z,-0.90
2019-01-18T07:07:57.199Z,-0.90
2019-01-18T07:10:26.203Z,-0.90
2019-01-18T07:12:55.171Z,-0.90
2019-01-18T07:15:24.339Z,-0.90
2019-01-18T07:17:53.295Z,-0.80
2019-01-18T07:20:22.335Z,-0.90
2019-01-18T07:22:51.840Z,-0.90
2019-01-18T07:25:23.116Z,-0.90
2019-01-18T07:27:52.098Z,-0.90
2019-01-18T07:30:35.744Z,-1.00
2019-01-18T07:33:06.334Z,-1.00
2019-01-18T07:35:35.207Z,-1.00
2019-01-18T07:38:04.160Z,-1.00
2019-01-18T07:40:33.251Z,-0.90
2019-01-18T07:43:02.149Z,-0.90
2019-01-18T07:45:31.361Z,-0.90
2019-01-18T07:48:00.484Z,-1.00
2019-01-18T07:50:29.311Z,-1.00
2019-01-18T07:52:58.180Z,-1.00
2019-01-18T07:55:27.298Z,-1.00
2019-01-18T07:57:56.337Z,-1.00
2019-01-18T08:00:27.147Z,-1.00
2019-01-18T08:02:56.348Z,-0.90
2019-01-18T08:05:27.447Z,-0.90
2019-01-18T08:07:59.557Z,-0.90
2019-01-18T08:10:28.443Z,-1.10
2019-01-18T08:12:57.661Z,-1.00
2019-01-18T08:15:27.868Z,-0.90
2019-01-18T08:17:59.427Z,-0.90
2019-01-18T08:20:30.037Z,-0.90
2019-01-18T08:22:59.253Z,-0.90
2019-01-18T08:25:28.071Z,-0.90
2019-01-18T08:27:57.372Z,-1.00
2019-01-18T08:30:28.018Z,-0.90
2019-01-18T08:32:57.126Z,-0.80
2019-01-18T08:35:26.756Z,-0.90
2019-01-18T08:37:55.687Z,-0.90
2019-01-18T08:40:27.098Z,-0.90
2019-01-18T08:42:56.225Z,-0.80
2019-01-18T08:45:27.959Z,-0.60
2019-01-18T08:47:57.424Z,-0.50
2019-01-18T08:50:26.303Z,-0.50
2019-01-18T08:52:55.259Z,-0.50
2019-01-18T08:55:24.202Z,-0.40
2019-01-18T08:57:53.019Z,-0.30
2019-01-18T09:00:23.185Z,-0.20
2019-01-18T09:02:52.432Z,-0.10
2019-01-18T09:05:22.979Z,0.00
2019-01-18T09:07:51.917Z,0.10
2019-01-18T09:10:23.297Z,0.20
2019-01-18T09:12:52.224Z,0.40
2019-01-18T09:15:21.099Z,0.60
2019-01-18T09:17:50.182Z,0.80
2019-01-18T09:20:23.961Z,0.80
2019-01-18T09:22:52.937Z,0.90
2019-01-18T09:25:22.078Z,1.00
2019-01-18T09:27:51.036Z,1.00
2019-01-18T09:30:25.073Z,1.10
2019-01-18T09:32:54.904Z,1.30
2019-01-18T09:35:24.760Z,1.30
2019-01-18T09:37:54.223Z,1.40
2019-01-18T09:40:25.498Z,1.50
2019-01-18T09:42:54.433Z,1.50
2019-01-18T09:45:23.497Z,1.60
2019-01-18T09:47:52.443Z,1.60
2019-01-18T09:50:23.471Z,1.60
2019-01-18T09:52:52.753Z,1.80
2019-01-18T09:55:21.624Z,1.80
2019-01-18T09:57:50.722Z,1.80
2019-01-18T10:00:24.779Z,1.90
2019-01-18T10:02:53.732Z,2.00
2019-01-18T10:05:22.927Z,2.00
2019-01-18T10:07:52.187Z,2.00
2019-01-18T10:10:21.235Z,2.20
2019-01-18T10:12:50.379Z,2.20
2019-01-18T10:15:21.725Z,2.20
2019-01-18T10:17:50.570Z,2.20
2019-01-18T10:20:19.929Z,2.30
2019-01-18T10:22:49.131Z,2.30
2019-01-18T10:25:17.991Z,2.40
2019-01-18T10:27:46.980Z,2.40
2019-01-18T10:30:18.339Z,2.40
2019-01-18T10:32:47.361Z,2.50
2019-01-18T10:35:17.212Z,2.70
2019-01-18T10:37:46.302Z,2.80
2019-01-18T10:40:15.460Z,2.80
2019-01-18T10:42:44.463Z,2.80
2019-01-18T10:45:13.948Z,3.00
2019-01-18T10:47:42.945Z,3.00
2019-01-18T10:50:17.357Z,3.10
2019-01-18T10:52:47.519Z,3.00
2019-01-18T10:55:16.474Z,3.30
2019-01-18T10:57:46.079Z,3.30
2019-01-18T11:00:20.905Z,3.40
2019-01-18T11:02:50.678Z,3.40
2019-01-18T11:05:20.138Z,3.40
2019-01-18T11:07:49.262Z,3.40
2019-01-18T11:10:18.483Z,3.50
2019-01-18T11:12:47.447Z,3.50
2019-01-18T11:15:18.417Z,3.50
2019-01-18T11:17:47.448Z,3.70
2019-01-18T11:20:19.232Z,3.70
2019-01-18T11:22:48.821Z,3.80
2019-01-18T11:25:17.610Z,3.80
2019-01-18T11:27:48.780Z,3.70
2019-01-18T11:30:18.036Z,3.80
2019-01-18T11:32:46.967Z,3.90
2019-01-18T11:35:16.519Z,4.10
2019-01-18T11:37:45.726Z,4.00
2019-01-18T11:40:17.033Z,4.10
2019-01-18T11:42:46.004Z,4.20
2019-01-18T11:45:15.541Z,4.00
2019-01-18T11:47:44.702Z,4.00
2019-01-18T11:50:16.085Z,4.20
2019-01-18T11:52:45.018Z,4.20
2019-01-18T11:55:14.023Z,4.30
2019-01-18T11:57:43.173Z,4.50
2019-01-18T12:00:17.941Z,4.50
2019-01-18T12:02:47.033Z,4.50
2019-01-18T12:05:16.300Z,4.60
2019-01-18T12:07:45.228Z,4.50
2019-01-18T12:10:32.826Z,4.50
2019-01-18T12:13:01.812Z,4.50
2019-01-18T12:15:30.837Z,4.60
2019-01-18T12:17:59.997Z,4.50
2019-01-18T12:20:34.240Z,4.60
2019-01-18T12:23:03.444Z,4.70
2019-01-18T12:25:32.556Z,4.70
2019-01-18T12:28:01.416Z,4.70
2019-01-18T12:30:32.487Z,4.80
2019-01-18T12:33:01.509Z,4.80
2019-01-18T12:35:30.425Z,4.80
2019-01-18T12:37:59.371Z,4.70
2019-01-18T12:40:28.245Z,4.80
2019-01-18T12:42:57.839Z,4.80
2019-01-18T12:45:27.091Z,4.80
2019-01-18T12:47:56.083Z,4.60
2019-01-18T12:50:50.253Z,4.60
2019-01-18T12:53:19.210Z,4.60
2019-01-18T12:55:48.343Z,4.60
2019-01-18T12:58:17.305Z,4.60
2019-01-18T13:00:46.161Z,4.60
2019-01-18T13:03:15.034Z,4.70
2019-01-18T13:05:48.959Z,4.70
2019-01-18T13:08:17.838Z,4.70
2019-01-18T13:10:46.781Z,4.70
2019-01-18T13:13:16.084Z,4.70
2019-01-18T13:16:28.287Z,4.80
2019-01-18T13:19:04.113Z,4.80
2019-01-18T13:21:32.905Z,4.80
2019-01-18T13:24:01.729Z,4.70
2019-01-18T13:26:30.981Z,4.60
2019-01-18T13:28:59.848Z,4.70
2019-01-18T13:31:28.795Z,4.60
2019-01-18T13:33:57.941Z,4.60
2019-01-18T13:36:26.848Z,4.50
2019-01-18T13:38:55.737Z,4.50
2019-01-18T13:41:24.846Z,4.40
2019-01-18T13:43:54.189Z,4.40
2019-01-18T13:46:23.163Z,4.30
2019-01-18T13:48:52.720Z,4.30
2019-01-18T13:51:21.492Z,4.20
2019-01-18T13:53:50.416Z,4.20
2019-01-18T13:56:19.418Z,4.20
2019-01-18T13:58:48.311Z,4.10
2019-01-18T14:01:17.308Z,4.10
2019-01-18T14:03:46.623Z,4.10
2019-01-18T14:06:15.606Z,4.10
2019-01-18T14:08:44.650Z,4.10
2019-01-18T14:11:15.728Z,4.10
2019-01-18T14:13:44.580Z,4.00
2019-01-18T14:16:13.626Z,4.00
2019-01-18T14:18:42.800Z,4.00
2019-01-18T14:21:12.989Z,4.00
2019-01-18T14:23:41.911Z,4.00
2019-01-18T14:26:11.069Z,4.00
2019-01-18T14:28:39.940Z,4.00
2019-01-18T14:31:08.910Z,3.90
2019-01-18T14:33:37.946Z,3.90
2019-01-18T14:36:06.829Z,3.90
2019-01-18T14:38:35.752Z,3.90
2019-01-18T14:41:04.971Z,3.90
2019-01-18T14:43:33.921Z,3.90
2019-01-18T14:46:02.963Z,3.90
2019-01-18T14:48:31.926Z,3.90
2019-01-18T14:51:00.797Z,3.90
2019-01-18T14:53:29.751Z,3.90
2019-01-18T14:55:58.778Z,3.80
2019-01-18T14:58:27.903Z,3.80
2019-01-18T15:00:58.565Z,3.80
2019-01-18T15:03:30.394Z,3.80
2019-01-18T15:06:01.599Z,3.80
2019-01-18T15:08:30.565Z,3.80
2019-01-18T15:10:59.712Z,3.80
2019-01-18T15:13:28.603Z,3.70
2019-01-18T15:15:57.416Z,3.60
2019-01-18T15:18:26.436Z,3.60
2019-01-18T15:20:55.346Z,3.60
2019-01-18T15:23:24.238Z,3.50
2019-01-18T15:25:53.251Z,3.50
2019-01-18T15:28:22.037Z,3.40
2019-01-18T15:30:50.893Z,3.40
2019-01-18T15:33:19.922Z,3.40
2019-01-18T15:35:48.803Z,3.30
2019-01-18T15:38:17.752Z,3.30
2019-01-18T15:40:47.831Z,3.30
2019-01-18T15:43:19.143Z,3.20
2019-01-18T15:45:48.067Z,3.20
2019-01-18T15:48:17.103Z,3.20
2019-01-18T15:50:45.887Z,3.10
2019-01-18T15:53:14.837Z,3.10
2019-01-18T15:55:43.912Z,3.10
2019-01-18T15:58:12.824Z,3.00
2019-01-18T16:00:43.374Z,2.90
2019-01-18T16:03:16.204Z,2.90
2019-01-18T16:05:43.185Z,2.90
2019-01-18T16:08:13.091Z,2.80
2019-01-18T16:10:42.082Z,2.80
2019-01-18T16:13:12.235Z,2.80
2019-01-18T16:16:14.348Z,2.70
2019-01-18T16:18:43.173Z,2.60
2019-01-18T16:21:12.234Z,2.60
2019-01-18T16:23:41.288Z,2.60
2019-01-18T16:26:10.311Z,2.50
2019-01-18T16:28:39.328Z,2.50
2019-01-18T16:31:08.325Z,2.40
2019-01-18T16:33:37.263Z,2.40
2019-01-18T16:36:06.256Z,2.30
2019-01-18T16:38:35.344Z,2.30
2019-01-18T16:41:04.305Z,2.30
2019-01-18T16:43:36.442Z,2.20
2019-01-18T16:46:05.553Z,2.20
2019-01-18T16:48:34.400Z,2.20
2019-01-18T16:51:03.600Z,2.10
2019-01-18T16:53:32.555Z,2.00
2019-01-18T16:56:01.922Z,1.80
2019-01-18T16:58:30.935Z,1.70
2019-01-18T17:01:01.707Z,1.60
2019-01-18T17:03:30.837Z,1.40
2019-01-18T17:06:00.059Z,1.30
2019-01-18T17:08:29.286Z,1.20
2019-01-18T17:10:58.176Z,1.10
2019-01-18T17:13:29.585Z,1.20
2019-01-18T17:15:58.484Z,1.20
2019-01-18T17:18:27.592Z,1.10
2019-01-18T17:20:56.727Z,0.90
2019-01-18T17:23:27.128Z,0.80
2019-01-18T17:25:55.930Z,0.80
2019-01-18T17:28:25.076Z,0.70
2019-01-18T17:30:54.285Z,0.70
2019-01-18T17:33:24.821Z,0.70
2019-01-18T17:36:04.470Z,0.70
2019-01-18T17:38:56.711Z,0.70
2019-01-18T17:41:43.126Z,0.80
2019-01-18T17:44:34.351Z,0.90
2019-01-18T17:47:27.510Z,0.90
2019-01-18T17:50:52.653Z,0.90
2019-01-18T17:53:58.591Z,0.70
2019-01-18T17:56:51.761Z,0.70
2019-01-18T17:59:54.205Z,0.70
2019-01-18T18:02:49.928Z,0.70
2019-01-18T18:05:45.468Z,0.70
2019-01-18T18:08:33.424Z,0.70
2019-01-18T18:11:32.042Z,0.60
2019-01-18T18:14:39.909Z,0.70
2019-01-18T18:17:54.917Z,0.70
2019-01-18T18:21:23.199Z,0.60
2019-01-18T18:24:20.461Z,0.60
2019-01-18T18:27:37.976Z,0.70
2019-01-18T18:30:53.114Z,0.60
2019-01-18T18:34:04.291Z,0.60
2019-01-18T18:36:55.273Z,0.50
2019-01-18T18:40:04.339Z,0.40
2019-01-18T18:42:55.576Z,0.30
2019-01-18T18:45:54.681Z,0.40
2019-01-18T18:48:39.748Z,0.40
2019-01-18T18:51:40.939Z,0.50
2019-01-18T18:54:45.452Z,0.40
2019-01-18T18:57:42.296Z,0.30
2019-01-18T19:00:37.740Z,0.40
2019-01-18T19:03:46.259Z,0.30
2019-01-18T19:06:47.094Z,0.40
2019-01-18T19:09:24.904Z,0.30
2019-01-18T19:12:23.364Z,0.20
2019-01-18T19:15:47.009Z,0.30
2019-01-18T19:18:59.633Z,0.20
2019-01-18T19:21:58.420Z,0.30
2019-01-18T19:24:49.825Z,0.30
2019-01-18T19:28:04.846Z,0.30
2019-01-18T19:31:12.929Z,0.40
2019-01-18T19:34:19.860Z,0.30
2019-01-18T19:37:12.277Z,0.30
2019-01-18T19:40:18.714Z,0.30
2019-01-18T19:43:20.617Z,0.30
2019-01-18T19:46:28.444Z,0.30
2019-01-18T19:49:33.195Z,0.20
2019-01-18T19:52:33.719Z,0.30
2019-01-18T19:55:30.457Z,0.30
2019-01-18T19:58:44.728Z,0.30
2019-01-18T20:01:29.701Z,0.30
2019-01-18T20:04:21.353Z,0.20
2019-01-18T20:07:43.273Z,0.10
2019-01-18T20:10:54.879Z,0.00
2019-01-18T20:13:50.728Z,0.10
2019-01-18T20:16:49.621Z,0.20
2019-01-18T20:19:57.651Z,0.10
2019-01-18T20:22:56.495Z,0.10
2019-01-18T20:25:54.524Z,0.00
2019-01-18T20:29:07.949Z,0.10
2019-01-18T20:32:12.927Z,0.10
2019-01-18T20:35:13.211Z,0.20
2019-01-18T20:38:02.256Z,0.10
2019-01-18T20:41:08.537Z,0.20
2019-01-18T20:43:55.978Z,0.20
2019-01-18T20:47:14.779Z,0.10
2019-01-18T20:50:28.051Z,0.00
2019-01-18T20:53:34.592Z,0.00
2019-01-18T20:56:27.820Z,0.00
2019-01-18T20:59:20.367Z,-0.10
2019-01-18T21:02:48.804Z,0.00
2019-01-18T21:05:29.951Z,0.00
2019-01-18T21:08:38.757Z,0.10
2019-01-18T21:11:35.110Z,0.10
2019-01-18T21:14:28.168Z,0.10
2019-01-18T21:17:53.679Z,0.10
2019-01-18T21:20:48.539Z,-0.10
2019-01-18T21:23:56.814Z,0.00
2019-01-18T21:26:52.093Z,0.00
2019-01-18T21:29:34.373Z,0.00
2019-01-18T21:32:11.793Z,-0.10
2019-01-18T21:35:14.673Z,-0.10
2019-01-18T21:38:03.221Z,-0.10
2019-01-18T21:40:58.569Z,-0.10
2019-01-18T21:43:57.985Z,-0.20
2019-01-18T21:47:06.812Z,0.00
2019-01-18T21:50:03.368Z,0.00
2019-01-18T21:53:22.642Z,0.00
2019-01-18T21:56:26.256Z,0.00
2019-01-18T21:59:33.645Z,-0.10
2019-01-18T22:02:44.669Z,-0.10
2019-01-18T22:05:26.901Z,-0.10
2019-01-18T22:08:44.406Z,-0.10
2019-01-18T22:12:24.743Z,-0.10
2019-01-18T22:15:31.255Z,0.00
2019-01-18T22:18:44.676Z,0.00
2019-01-18T22:21:55.608Z,0.00
2019-01-18T22:25:03.717Z,0.00
2019-01-18T22:27:55.960Z,0.00
2019-01-18T22:31:01.083Z,-0.10
2019-01-18T22:33:38.377Z,-0.10
2019-01-18T22:36:39.209Z,-0.10
2019-01-18T22:39:44.398Z,-0.10
2019-01-18T22:42:22.513Z,-0.10
2019-01-18T22:45:17.409Z,-0.10
2019-01-18T22:48:25.149Z,-0.10
2019-01-18T22:51:26.206Z,0.00
2019-01-18T22:54:37.641Z,-0.10
2019-01-18T22:57:21.239Z,0.00
2019-01-18T23:00:48.263Z,-0.10
2019-01-18T23:03:43.279Z,0.00
2019-01-18T23:07:09.876Z,0.00
2019-01-18T23:10:02.453Z,0.00
2019-01-18T23:13:00.426Z,-0.10
2019-01-18T23:15:54.356Z,-0.10
2019-01-18T23:19:13.306Z,-0.10
2019-01-18T23:22:25.281Z,-0.20
2019-01-18T23:25:29.437Z,-0.20
2019-01-18T23:28:36.297Z,-0.20
2019-01-18T23:31:18.996Z,-0.10
2019-01-18T23:34:13.170Z,-0.20
2019-01-18T23:37:12.753Z,-0.30
2019-01-18T23:40:34.851Z,-0.20
2019-01-18T23:43:32.377Z,-0.20
2019-01-18T23:46:46.697Z,-0.20
2019-01-18T23:49:24.618Z,-0.30
2019-01-18T23:52:21.639Z,-0.30
2019-01-18T23:55:16.767Z,-0.30
2019-01-18T23:58:13.766Z,-0.30
